createdAt,value
2023-05-18T00:02:10.126Z,98434.81
2023-05-18T00:04:39.336Z,98438.83
2023-05-18T00:07:08.178Z,98442.38
2023-05-18T00:09:38.541Z,98442.41
2023-05-18T00:12:09.437Z,98441.48
2023-05-18T00:14:38.340Z,98442.11
2023-05-18T00:17:07.165Z,98441.41
2023-05-18T00:19:37.082Z,98445.64
2023-05-18T00:22:08.244Z,98446.27
2023-05-18T00:24:37.304Z,98445.58
2023-05-18T00:27:06.443Z,98440.39
2023-05-18T00:29:35.701Z,98442.42
2023-05-18T00:32:05.803Z,98443.55
2023-05-18T00:34:35.050Z,98439.84
2023-05-18T00:37:04.364Z,98449.42
2023-05-18T00:39:33.288Z,98448.34
2023-05-18T00:42:02.831Z,98453.42
2023-05-18T00:44:32.661Z,98449.86
2023-05-18T00:47:02.940Z,98456.98
2023-05-18T00:49:32.485Z,98461.66
2023-05-18T00:52:03.324Z,98460.22
2023-05-18T00:54:35.130Z,98464.31
2023-05-18T00:57:05.947Z,98457.16
2023-05-18T00:59:35.294Z,98457.13
2023-05-18T01:02:04.814Z,98458.67
2023-05-18T01:04:34.561Z,98459.43
2023-05-18T01:07:07.113Z,98460.56
2023-05-18T01:09:36.581Z,98467.81
2023-05-18T01:12:37.066Z,98472.05
2023-05-18T01:15:17.810Z,98472.80
2023-05-18T01:18:01.342Z,98473.78
2023-05-18T01:21:00.173Z,98470.52
2023-05-18T01:23:52.693Z,98468.21
2023-05-18T01:26:30.489Z,98473.24
2023-05-18T01:29:03.831Z,98473.62
2023-05-18T01:31:33.169Z,98471.39
2023-05-18T01:34:02.472Z,98471.08
2023-05-18T01:36:32.408Z,98467.96
2023-05-18T01:39:02.354Z,98465.65
2023-05-18T01:41:36.929Z,98459.69
2023-05-18T01:44:13.630Z,98458.31
2023-05-18T01:46:57.695Z,98454.45
2023-05-18T01:49:48.450Z,98457.30
2023-05-18T01:52:21.719Z,98458.65
2023-05-18T01:54:58.493Z,98460.20
2023-05-18T01:57:30.253Z,98462.35
2023-05-18T02:00:04.603Z,98459.62
2023-05-18T02:02:33.517Z,98459.68
2023-05-18T02:05:05.397Z,98462.44
2023-05-18T02:07:34.637Z,98466.26
2023-05-18T02:10:03.938Z,98461.22
2023-05-18T02:12:33.061Z,98465.91
2023-05-18T02:15:05.937Z,98469.17
2023-05-18T02:17:39.722Z,98478.48
2023-05-18T02:20:09.308Z,98479.29
2023-05-18T02:22:38.409Z,98485.34
2023-05-18T02:25:08.144Z,98481.65
2023-05-18T02:27:37.201Z,98483.46
2023-05-18T02:30:09.166Z,98483.48
2023-05-18T02:32:43.176Z,98483.39
2023-05-18T02:35:12.407Z,98484.46
2023-05-18T02:37:44.084Z,98484.40
2023-05-18T02:40:14.732Z,98486.50
2023-05-18T02:42:43.906Z,98488.45
2023-05-18T02:45:12.960Z,98493.61
2023-05-18T02:47:44.402Z,98494.17
2023-05-18T02:50:13.594Z,98503.08
2023-05-18T02:52:42.562Z,98498.77
2023-05-18T02:55:14.281Z,98504.23
2023-05-18T02:57:47.358Z,98503.91
2023-05-18T03:00:17.376Z,98506.99
2023-05-18T03:02:48.782Z,98505.95
2023-05-18T03:05:18.720Z,98505.00
2023-05-18T03:07:51.290Z,98505.39
2023-05-18T03:10:20.533Z,98510.98
2023-05-18T03:12:49.573Z,98511.65
2023-05-18T03:15:18.426Z,98513.21
2023-05-18T03:17:47.713Z,98514.19
2023-05-18T03:20:16.620Z,98513.44
2023-05-18T03:22:45.540Z,98518.88
2023-05-18T03:25:15.662Z,98518.84
2023-05-18T03:27:44.652Z,98517.89
2023-05-18T03:30:13.911Z,98518.75
2023-05-18T03:32:43.056Z,98523.55
2023-05-18T03:35:12.590Z,98526.56
2023-05-18T03:37:42.136Z,98525.91
2023-05-18T03:40:14.417Z,98525.70
2023-05-18T03:42:44.070Z,98525.10
2023-05-18T03:45:13.625Z,98527.83
2023-05-18T03:47:43.230Z,98523.14
2023-05-18T03:50:12.677Z,98525.91
2023-05-18T03:52:44.997Z,98527.35
2023-05-18T03:55:14.628Z,98526.43
2023-05-18T03:57:43.806Z,98531.94
2023-05-18T04:00:14.597Z,98533.35
2023-05-18T04:02:43.867Z,98535.02
2023-05-18T04:05:12.905Z,98535.14
2023-05-18T04:07:46.751Z,98537.27
2023-05-18T04:10:17.802Z,98537.44
2023-05-18T04:12:46.954Z,98536.70
2023-05-18T04:15:16.056Z,98534.77
2023-05-18T04:17:46.339Z,98527.92
2023-05-18T04:20:15.827Z,98527.58
2023-05-18T04:22:48.787Z,98530.75
2023-05-18T04:25:19.128Z,98535.75
2023-05-18T04:27:51.218Z,98533.78
2023-05-18T04:30:23.021Z,98538.05
2023-05-18T04:32:52.146Z,98541.88
2023-05-18T04:35:21.419Z,98547.70
2023-05-18T04:37:51.045Z,98553.27
2023-05-18T04:40:20.374Z,98554.65
2023-05-18T04:42:49.486Z,98556.55
2023-05-18T04:45:20.189Z,98557.66
2023-05-18T04:47:54.494Z,98551.80
2023-05-18T04:50:24.316Z,98550.67
2023-05-18T04:52:58.424Z,98554.30
2023-05-18T04:55:29.284Z,98561.10
2023-05-18T04:57:59.916Z,98562.23
2023-05-18T05:00:30.396Z,98565.77
2023-05-18T05:03:00.869Z,98571.83
2023-05-18T05:05:30.790Z,98565.86
2023-05-18T05:07:59.960Z,98569.73
2023-05-18T05:10:28.993Z,98565.19
2023-05-18T05:12:58.585Z,98566.95
2023-05-18T05:15:27.690Z,98570.17
2023-05-18T05:17:58.294Z,98568.34
2023-05-18T05:20:27.913Z,98573.52
2023-05-18T05:22:56.823Z,98573.04
2023-05-18T05:25:26.254Z,98572.98
2023-05-18T05:27:55.237Z,98576.23
2023-05-18T05:30:24.083Z,98577.73
2023-05-18T05:32:53.277Z,98579.44
2023-05-18T05:35:22.306Z,98578.72
2023-05-18T05:37:51.483Z,98572.21
2023-05-18T05:40:20.861Z,98575.13
2023-05-18T05:42:50.178Z,98577.23
2023-05-18T05:45:19.815Z,98579.21
2023-05-18T05:47:50.158Z,98578.11
2023-05-18T05:50:19.257Z,98578.21
2023-05-18T05:52:48.688Z,98578.19
2023-05-18T05:55:17.560Z,98574.94
2023-05-18T05:57:46.922Z,98572.48
2023-05-18T06:00:16.721Z,98567.14
2023-05-18T06:02:45.883Z,98565.75
2023-05-18T06:05:14.820Z,98566.17
2023-05-18T06:07:43.976Z,98573.48
2023-05-18T06:10:13.382Z,98570.81
2023-05-18T06:12:42.813Z,98572.21
2023-05-18T06:15:12.171Z,98572.17
2023-05-18T06:17:41.800Z,98581.50
2023-05-18T06:20:12.716Z,98582.02
2023-05-18T06:22:42.342Z,98587.77
2023-05-18T06:25:12.444Z,98594.31
2023-05-18T06:27:43.015Z,98589.58
2023-05-18T06:30:13.099Z,98587.70
2023-05-18T06:32:42.659Z,98589.88
2023-05-18T06:35:13.346Z,98586.58
2023-05-18T06:37:43.179Z,98590.06
2023-05-18T06:40:13.500Z,98589.13
2023-05-18T06:42:42.383Z,98588.86
2023-05-18T06:45:12.063Z,98594.31
2023-05-18T06:47:42.839Z,98592.95
2023-05-18T06:50:12.299Z,98600.96
2023-05-18T06:52:41.484Z,98601.46
2023-05-18T06:55:11.245Z,98598.98
2023-05-18T06:57:40.751Z,98604.14
2023-05-18T07:00:13.232Z,98607.94
2023-05-18T07:02:43.855Z,98603.89
2023-05-18T07:05:13.396Z,98606.25
2023-05-18T07:07:42.600Z,98608.57
2023-05-18T07:10:12.013Z,98603.68
2023-05-18T07:12:41.187Z,98604.58
2023-05-18T07:15:12.056Z,98602.02
2023-05-18T07:17:41.372Z,98601.41
2023-05-18T07:20:10.785Z,98603.22
2023-05-18T07:22:39.925Z,98602.45
2023-05-18T07:25:09.278Z,98611.96
2023-05-18T07:27:38.737Z,98606.44
2023-05-18T07:30:09.354Z,98614.73
2023-05-18T07:32:38.541Z,98611.67
2023-05-18T07:35:08.201Z,98609.79
2023-05-18T07:37:37.810Z,98611.95
2023-05-18T07:40:10.256Z,98610.42
2023-05-18T07:42:42.843Z,98608.36
2023-05-18T07:45:13.613Z,98605.81
2023-05-18T07:47:43.145Z,98607.30
2023-05-18T07:50:12.797Z,98606.84
2023-05-18T07:52:41.829Z,98613.04
2023-05-18T07:55:11.984Z,98614.48
2023-05-18T07:57:41.741Z,98611.55
2023-05-18T08:00:13.706Z,98615.41
2023-05-18T08:02:47.299Z,98620.06
2023-05-18T08:05:18.992Z,98620.09
2023-05-18T08:07:49.882Z,98620.45
2023-05-18T08:10:19.829Z,98626.79
2023-05-18T08:12:49.372Z,98630.64
2023-05-18T08:15:19.693Z,98626.77
2023-05-18T08:17:49.114Z,98625.23
2023-05-18T08:20:18.818Z,98625.23
2023-05-18T08:22:47.999Z,98626.71
2023-05-18T08:25:17.720Z,98623.98
2023-05-18T08:27:48.027Z,98619.52
2023-05-18T08:30:22.481Z,98622.36
2023-05-18T08:32:52.582Z,98615.73
2023-05-18T08:35:22.135Z,98621.04
2023-05-18T08:37:51.832Z,98622.96
2023-05-18T08:40:22.040Z,98627.10
2023-05-18T08:43:10.614Z,98631.98
2023-05-18T08:45:50.792Z,98634.16
2023-05-18T08:48:26.417Z,98635.56
2023-05-18T08:51:00.374Z,98635.27
2023-05-18T08:53:33.126Z,98638.29
2023-05-18T08:56:03.720Z,98638.23
2023-05-18T08:58:43.889Z,98641.09
2023-05-18T09:01:14.687Z,98643.02
2023-05-18T09:03:46.500Z,98645.04
2023-05-18T09:06:16.559Z,98646.93
2023-05-18T09:08:47.365Z,98647.66
2023-05-18T09:11:17.760Z,98650.52
2023-05-18T09:13:49.489Z,98656.89
2023-05-18T09:16:19.889Z,98654.79
2023-05-18T09:18:49.286Z,98652.42
2023-05-18T09:21:18.445Z,98651.42
2023-05-18T09:23:49.123Z,98651.33
2023-05-18T09:26:19.875Z,98653.92
2023-05-18T09:28:53.854Z,98659.17
2023-05-18T09:31:28.315Z,98661.47
2023-05-18T09:34:00.745Z,98656.52
2023-05-18T09:36:32.657Z,98661.35
2023-05-18T09:39:10.723Z,98662.85
2023-05-18T09:41:40.674Z,98663.05
2023-05-18T09:44:11.285Z,98667.75
2023-05-18T09:46:41.078Z,98666.85
2023-05-18T09:49:10.475Z,98670.15
2023-05-18T09:51:40.627Z,98674.33
2023-05-18T09:54:10.960Z,98673.02
2023-05-18T09:56:40.101Z,98669.28
2023-05-18T09:59:15.255Z,98670.70
2023-05-18T10:02:01.673Z,98670.02
2023-05-18T10:04:39.761Z,98667.47
2023-05-18T10:07:17.462Z,98669.58
2023-05-18T10:09:47.276Z,98670.38
2023-05-18T10:12:22.988Z,98672.52
2023-05-18T10:14:52.823Z,98669.73
2023-05-18T10:17:26.363Z,98663.42
2023-05-18T10:19:57.538Z,98660.15
2023-05-18T10:22:29.311Z,98658.09
2023-05-18T10:24:59.838Z,98657.23
2023-05-18T10:27:31.193Z,98656.02
2023-05-18T10:30:01.580Z,98653.00
2023-05-18T10:32:34.649Z,98644.06
2023-05-18T10:35:05.904Z,98645.79
2023-05-18T10:37:38.914Z,98640.94
2023-05-18T10:40:10.737Z,98645.42
2023-05-18T10:42:41.987Z,98645.91
2023-05-18T10:45:11.682Z,98646.41
2023-05-18T10:47:43.175Z,98641.74
2023-05-18T10:50:15.619Z,98641.95
2023-05-18T10:52:46.805Z,98641.72
2023-05-18T10:55:16.068Z,98636.64
2023-05-18T10:58:02.484Z,98635.89
2023-05-18T11:00:35.503Z,98635.73
2023-05-18T11:03:08.963Z,98627.48
2023-05-18T11:05:40.224Z,98622.80
2023-05-18T11:08:10.408Z,98619.20
2023-05-18T11:10:43.252Z,98621.10
2023-05-18T11:13:15.379Z,98620.38
2023-05-18T11:15:55.059Z,98624.10
2023-05-18T11:18:41.202Z,98625.52
2023-05-18T11:21:20.539Z,98615.36
2023-05-18T11:24:21.262Z,98615.48
2023-05-18T11:26:53.529Z,98614.98
2023-05-18T11:29:40.906Z,98619.09
2023-05-18T11:32:36.931Z,98612.45
2023-05-18T11:35:11.550Z,98610.86
2023-05-18T11:37:40.536Z,98610.14
2023-05-18T11:40:17.283Z,98611.64
2023-05-18T11:43:00.034Z,98611.85
2023-05-18T11:45:29.471Z,98606.38
2023-05-18T11:48:04.317Z,98605.62
2023-05-18T11:50:34.494Z,98605.86
2023-05-18T11:53:04.116Z,98601.82
2023-05-18T11:55:39.925Z,98602.54
2023-05-18T11:58:10.847Z,98606.44
2023-05-18T12:00:41.493Z,98610.20
2023-05-18T12:03:11.492Z,98611.02
2023-05-18T12:05:50.359Z,98609.48
2023-05-18T12:08:21.512Z,98604.39
2023-05-18T12:10:52.123Z,98596.17
2023-05-18T12:13:23.695Z,98594.09
2023-05-18T12:15:56.856Z,98600.52
2023-05-18T12:18:30.689Z,98603.00
2023-05-18T12:21:05.703Z,98600.52
2023-05-18T12:23:40.022Z,98595.70
2023-05-18T12:26:09.833Z,98593.05
2023-05-18T12:28:39.897Z,98590.84
2023-05-18T12:31:11.537Z,98593.84
2023-05-18T12:33:40.618Z,98597.52
2023-05-18T12:36:14.678Z,98596.36
2023-05-18T12:38:44.010Z,98591.64
2023-05-18T12:41:26.890Z,98594.30
2023-05-18T12:43:56.873Z,98594.73
2023-05-18T12:46:26.833Z,98596.20
2023-05-18T12:49:02.263Z,98592.79
2023-05-18T12:51:35.919Z,98592.63
2023-05-18T12:54:06.737Z,98598.38
2023-05-18T12:57:04.481Z,98592.91
2023-05-18T12:59:33.924Z,98592.48
2023-05-18T13:02:03.825Z,98595.31
2023-05-18T13:04:36.870Z,98599.98
2023-05-18T13:07:06.334Z,98592.80
2023-05-18T13:09:36.161Z,98605.40
2023-05-18T13:12:08.100Z,98597.28
2023-05-18T13:14:41.564Z,98597.02
2023-05-18T13:17:11.252Z,98596.61
2023-05-18T13:19:40.934Z,98591.47
2023-05-18T13:22:10.514Z,98590.66
2023-05-18T13:24:40.040Z,98591.42
2023-05-18T13:27:09.643Z,98586.23
2023-05-18T13:29:39.506Z,98587.53
2023-05-18T13:32:09.830Z,98583.51
2023-05-18T13:34:39.442Z,98589.22
2023-05-18T13:37:10.349Z,98585.02
2023-05-18T13:39:41.436Z,98586.08
2023-05-18T13:42:10.671Z,98581.28
2023-05-18T13:44:40.878Z,98580.16
2023-05-18T13:47:10.366Z,98581.33
2023-05-18T13:49:40.549Z,98579.05
2023-05-18T14:12:26.883Z,98597.47
2023-05-18T14:14:56.272Z,98600.16
2023-05-18T14:17:25.667Z,98609.85
2023-05-18T14:19:55.051Z,98620.35
2023-05-18T14:22:24.066Z,98619.77
2023-05-18T14:24:54.277Z,98622.81
2023-05-18T14:27:23.520Z,98626.36
2023-05-18T14:29:52.560Z,98623.45
2023-05-18T14:32:22.252Z,98626.63
2023-05-18T14:34:52.279Z,98628.25
2023-05-18T14:37:21.608Z,98630.36
2023-05-18T14:39:50.876Z,98632.19
2023-05-18T14:42:20.161Z,98630.83
2023-05-18T14:44:49.258Z,98628.36
2023-05-18T14:47:18.504Z,98630.23
2023-05-18T14:49:48.123Z,98629.30
2023-05-18T14:52:17.422Z,98633.23
2023-05-18T14:54:48.323Z,98637.20
2023-05-18T14:57:17.586Z,98637.70
2023-05-18T14:59:47.034Z,98638.94
2023-05-18T15:02:17.312Z,98635.96
2023-05-18T15:04:48.111Z,98634.83
2023-05-18T15:07:18.493Z,98639.08
2023-05-18T15:09:48.138Z,98636.13
2023-05-18T15:12:18.371Z,98632.66
2023-05-18T15:14:47.930Z,98637.11
2023-05-18T15:17:18.665Z,98641.49
2023-05-18T15:19:48.424Z,98639.94
2023-05-18T15:22:17.986Z,98641.61
2023-05-18T15:24:47.855Z,98641.45
2023-05-18T15:27:18.931Z,98646.61
2023-05-18T15:29:49.025Z,98648.42
2023-05-18T15:32:18.895Z,98648.48
2023-05-18T15:34:48.390Z,98646.82
2023-05-18T15:37:17.537Z,98651.45
2023-05-18T15:39:48.408Z,98650.66
2023-05-18T15:42:20.539Z,98651.92
2023-05-18T15:44:54.220Z,98657.14
2023-05-18T15:47:23.303Z,98658.91
2023-05-18T15:49:52.575Z,98661.19
2023-05-18T15:52:21.966Z,98663.65
2023-05-18T15:54:51.742Z,98660.61
2023-05-18T15:57:22.807Z,98655.70
2023-05-18T15:59:52.852Z,98660.60
2023-05-18T16:02:24.364Z,98658.20
2023-05-18T16:04:56.586Z,98656.46
2023-05-18T16:07:25.927Z,98656.39
2023-05-18T16:09:55.207Z,98655.33
2023-05-18T16:12:24.487Z,98657.37
2023-05-18T16:14:53.690Z,98657.77
2023-05-18T16:17:23.024Z,98655.47
2023-05-18T16:19:53.151Z,98652.84
2023-05-18T16:22:22.406Z,98653.64
2023-05-18T16:24:51.705Z,98653.09
2023-05-18T16:27:20.916Z,98649.73
2023-05-18T16:29:52.280Z,98651.73
2023-05-18T16:32:21.943Z,98650.05
2023-05-18T16:34:51.638Z,98650.92
2023-05-18T16:37:21.372Z,98649.95
2023-05-18T16:39:51.429Z,98652.04
2023-05-18T16:42:23.197Z,98652.62
2023-05-18T16:44:52.458Z,98652.04
2023-05-18T16:47:22.817Z,98651.79
2023-05-18T16:49:52.682Z,98655.95
2023-05-18T16:52:22.638Z,98656.69
2023-05-18T16:54:52.172Z,98652.22
2023-05-18T16:57:21.815Z,98656.92
2023-05-18T16:59:52.992Z,98656.13
2023-05-18T17:02:25.266Z,98657.58
2023-05-18T17:04:56.449Z,98661.27
2023-05-18T17:07:27.638Z,98662.05
2023-05-18T17:09:58.232Z,98661.51
2023-05-18T17:12:28.208Z,98669.27
2023-05-18T17:14:58.932Z,98671.48
2023-05-18T17:17:28.842Z,98671.64
2023-05-18T17:19:58.683Z,98678.83
2023-05-18T17:22:29.123Z,98675.48
2023-05-18T17:24:58.622Z,98674.73
2023-05-18T17:27:28.258Z,98675.62
2023-05-18T17:29:58.743Z,98675.22
2023-05-18T17:32:29.182Z,98674.41
2023-05-18T17:34:59.088Z,98677.54
2023-05-18T17:37:29.356Z,98674.45
2023-05-18T17:39:59.228Z,98675.46
2023-05-18T17:42:29.051Z,98681.05
2023-05-18T17:44:58.461Z,98682.82
2023-05-18T17:47:28.398Z,98684.91
2023-05-18T17:49:57.672Z,98685.38
2023-05-18T17:52:27.084Z,98691.61
2023-05-18T17:54:57.847Z,98689.77
2023-05-18T17:57:27.455Z,98691.61
2023-05-18T17:59:56.559Z,98694.08
2023-05-18T18:02:26.751Z,98694.23
2023-05-18T18:04:56.731Z,98695.35
2023-05-18T18:07:26.833Z,98697.04
2023-05-18T18:09:56.345Z,98699.11
2023-05-18T18:12:26.865Z,98699.27
2023-05-18T18:14:56.567Z,98705.41
2023-05-18T18:17:27.001Z,98705.73
2023-05-18T18:19:57.019Z,98707.10
2023-05-18T18:22:28.232Z,98708.61
2023-05-18T18:24:57.994Z,98704.21
2023-05-18T18:27:28.342Z,98706.30
2023-05-18T18:29:58.167Z,98703.81
2023-05-18T18:32:28.038Z,98708.92
2023-05-18T18:34:58.157Z,98710.36
2023-05-18T18:37:28.903Z,98712.74
2023-05-18T18:39:58.186Z,98714.41
2023-05-18T18:42:27.543Z,98716.17
2023-05-18T18:44:57.558Z,98719.98
2023-05-18T18:47:26.959Z,98721.11
2023-05-18T18:49:56.880Z,98723.41
2023-05-18T18:52:26.623Z,98726.44
2023-05-18T18:54:57.223Z,98723.95
2023-05-18T18:57:28.146Z,98728.64
2023-05-18T18:59:59.762Z,98731.31
2023-05-18T19:02:29.879Z,98735.61
2023-05-18T19:05:00.177Z,98742.78
2023-05-18T19:07:30.660Z,98743.57
2023-05-18T19:10:00.741Z,98744.70
2023-05-18T19:12:31.055Z,98748.45
2023-05-18T19:15:00.736Z,98750.04
2023-05-18T19:17:29.991Z,98754.41
2023-05-18T19:20:00.217Z,98754.73
2023-05-18T19:22:30.132Z,98760.81
2023-05-18T19:24:59.679Z,98762.73
2023-05-18T19:27:29.668Z,98762.89
2023-05-18T19:30:01.624Z,98763.77
2023-05-18T19:32:34.177Z,98767.00
2023-05-18T19:35:07.802Z,98770.91
2023-05-18T19:37:37.525Z,98773.72
2023-05-18T19:40:07.875Z,98775.60
2023-05-18T19:42:37.659Z,98777.92
2023-05-18T19:45:08.213Z,98778.89
2023-05-18T19:47:37.724Z,98777.73
2023-05-18T19:50:08.718Z,98778.83
2023-05-18T19:52:39.233Z,98781.23
2023-05-18T19:55:09.790Z,98782.52
2023-05-18T19:57:39.032Z,98785.43
2023-05-18T20:00:11.653Z,98786.59
2023-05-18T20:02:42.685Z,98792.08
2023-05-18T20:05:13.736Z,98796.13
2023-05-18T20:07:43.196Z,98794.81
2023-05-18T20:10:13.293Z,98795.61
2023-05-18T20:12:42.853Z,98792.98
2023-05-18T20:15:12.739Z,98792.39
2023-05-18T20:17:43.205Z,98794.94
2023-05-18T20:20:13.120Z,98795.24
2023-05-18T20:22:42.409Z,98794.27
2023-05-18T20:25:12.476Z,98795.13
2023-05-18T20:27:42.618Z,98793.11
2023-05-18T20:30:12.561Z,98797.36
2023-05-18T20:32:42.691Z,98796.80
2023-05-18T20:35:13.918Z,98800.05
2023-05-18T20:37:44.508Z,98805.42
2023-05-18T20:40:14.681Z,98804.86
2023-05-18T20:42:44.908Z,98807.15
2023-05-18T20:45:14.818Z,98811.42
2023-05-18T20:47:44.836Z,98809.42
2023-05-18T20:50:14.126Z,98810.38
2023-05-18T20:52:43.897Z,98809.59
2023-05-18T20:55:16.514Z,98807.25
2023-05-18T20:57:49.807Z,98808.70
2023-05-18T21:00:20.631Z,98805.18
2023-05-18T21:02:50.092Z,98804.09
2023-05-18T21:05:21.091Z,98803.16
2023-05-18T21:07:52.333Z,98803.79
2023-05-18T21:10:24.370Z,98805.43
2023-05-18T21:12:54.432Z,98804.48
2023-05-18T21:15:23.853Z,98804.77
2023-05-18T21:17:53.378Z,98804.92
2023-05-18T21:20:23.126Z,98804.12
2023-05-18T21:22:53.130Z,98804.07
2023-05-18T21:25:22.939Z,98805.04
2023-05-18T21:27:52.816Z,98805.30
2023-05-18T21:30:22.629Z,98803.67
2023-05-18T21:32:53.480Z,98803.75
2023-05-18T21:35:23.356Z,98803.50
2023-05-18T21:37:52.800Z,98804.55
2023-05-18T21:40:22.368Z,98804.38
2023-05-18T21:42:52.016Z,98802.37
2023-05-18T21:45:23.408Z,98800.32
2023-05-18T21:47:53.961Z,98801.23
2023-05-18T21:50:23.621Z,98802.98
2023-05-18T21:52:53.126Z,98799.80
2023-05-18T21:55:22.413Z,98797.38
2023-05-18T21:57:51.797Z,98797.84
2023-05-18T22:00:22.561Z,98798.05
2023-05-18T22:02:52.543Z,98798.11
2023-05-18T22:05:22.513Z,98797.01
2023-05-18T22:07:53.037Z,98795.70
2023-05-18T22:10:22.725Z,98795.48
2023-05-18T22:12:52.031Z,98793.02
2023-05-18T22:15:23.257Z,98792.77
2023-05-18T22:17:55.276Z,98791.81
2023-05-18T22:20:24.626Z,98793.80
2023-05-18T22:22:54.064Z,98794.70
2023-05-18T22:25:25.377Z,98793.69
2023-05-18T22:27:55.172Z,98795.81
2023-05-18T22:30:24.552Z,98797.38
2023-05-18T22:32:54.072Z,98795.15
2023-05-18T22:35:23.586Z,98795.44
2023-05-18T22:37:53.226Z,98794.73
2023-05-18T22:40:23.381Z,98793.34
2023-05-18T22:42:55.546Z,98794.55
2023-05-18T22:45:25.293Z,98797.09
2023-05-18T22:47:54.569Z,98792.49
2023-05-18T22:50:24.431Z,98792.45
2023-05-18T22:52:54.426Z,98791.13
2023-05-18T22:55:23.658Z,98788.09
2023-05-18T22:57:52.595Z,98786.89
2023-05-18T23:00:22.292Z,98783.09
2023-05-18T23:02:53.573Z,98780.12
2023-05-18T23:05:22.580Z,98777.39
2023-05-18T23:07:52.805Z,98779.38
2023-05-18T23:10:22.115Z,98773.90
2023-05-18T23:12:51.603Z,98776.21
2023-05-18T23:15:20.598Z,98776.79
2023-05-18T23:17:49.529Z,98777.48
2023-05-18T23:20:18.756Z,98774.23
2023-05-18T23:22:48.053Z,98779.03
2023-05-18T23:25:18.032Z,98772.05
2023-05-18T23:27:47.262Z,98773.59
2023-05-18T23:30:16.497Z,98772.77
2023-05-18T23:32:47.453Z,98776.66
2023-05-18T23:35:17.951Z,98777.83
2023-05-18T23:37:50.640Z,98773.46
2023-05-18T23:40:20.152Z,98771.45
2023-05-18T23:42:49.683Z,98776.24
2023-05-18T23:45:19.453Z,98774.43
2023-05-18T23:47:49.296Z,98770.34
2023-05-18T23:50:19.029Z,98771.21
2023-05-18T23:52:48.654Z,98772.40
2023-05-18T23:55:22.696Z,98774.64
2023-05-18T23:57:52.703Z,98770.98
